Decoded Metar for KSTF ( in ) (IATA:) | Meteo·Mobile Aviation Weather
aviador You're here:

KSTF Decoded Metar

in
Report Time2019-02-16 01:15:00
UTC Time2019-02-16 01:30:49
Flight Rules mvfr MVFR
WindCalm
Visibility9999 m
Phenomena:N/A
Clouds:Overcast 014 Hf
Expected CloudBase > 800 ft AGL from Temp-Dew spread
Ceiling1,400 ft
Temp17°C
Dew Point15°C (88% RH)
QNH1008 hPa
Raw Report
KSTF 160115Z AUTO 00000KT 10SM OVC014 17/15 A2976 RMK AO2
PWINO=

Extra information for KSTF:More info

Social comments